Time;durP1;ratioP1;P1;durP2;ratioP2;P2;SDS_P1;SDS_P2;PMS_P1;PMS_P2;Temp;Humidity;BMP_temperature;BMP_pressure;BME280_temperature;BME280_humidity;BME280_pressure;Samples;Min_cycle;Max_cycle;Signal;HPM_P1;HPM_P2
2022/04/26 03:36:54;;;;;;;;;;;;;;;18.08;44.46;100396.50;5098392;28;844;-58
2022/04/26 03:39:20;;;;;;;;;;;;;;;18.05;44.76;100405.34;5098293;28;1906;-61
2022/04/26 03:41:46;;;;;;;;;;;;;;;18.11;44.68;100404.19;5098089;28;822;-58
2022/04/26 03:44:11;;;;;;;;;;;;;;;18.09;44.60;100409.13;5079437;28;950;-58
2022/04/26 03:46:36;;;;;;;;;;;;;;;18.08;44.18;100411.09;5100166;28;1146;-58
2022/04/26 03:49:02;;;;;;;;;;;;;;;17.95;43.65;100414.53;5102249;28;992;-58
2022/04/26 03:51:28;;;;;;;;;;;;;;;17.84;42.54;100410.22;5101438;28;1230;-58
2022/04/26 03:53:54;;;;;;;;;;;;;;;17.59;41.85;100404.69;5109888;28;1242;-58
2022/04/26 03:56:19;;;;;;;;;;;;;;;17.58;41.31;100402.22;5099963;28;811;-56
2022/04/26 03:58:45;;;;;;;;;;;;;;;17.47;40.95;100411.66;5098318;28;1984;-55
2022/04/26 04:01:10;;;;;;;;;;;;;;;17.31;40.39;100413.75;5103976;28;1221;-57
2022/04/26 04:03:36;;;;;;;;;;;;;;;17.22;40.14;100408.03;5097982;28;985;-55
2022/04/26 04:06:02;;;;;;;;;;;;;;;17.17;39.85;100413.56;5098115;28;785;-54
2022/04/26 04:08:27;;;;;;;;;;;;;;;17.07;39.71;100412.53;5096994;28;825;-54
2022/04/26 04:10:53;;;;;;;;;;;;;;;17.04;39.77;100412.28;5099692;28;1361;-53
2022/04/26 04:13:19;;;;;;;;;;;;;;;17.03;39.48;100416.94;5098522;28;1123;-53
2022/04/26 04:15:46;;;;;;;;;;;;;;;16.95;39.67;100425.78;5097446;28;766;-56
2022/04/26 04:20:56;;;;;;;;;;;;;;;17.30;41.43;100415.66;5107337;28;853;-57
2022/04/26 04:23:22;;;;;;;;;;;;;;;17.40;42.46;100415.59;5103689;27;1179;-58
2022/04/26 04:25:48;;;;;;;;;;;;;;;17.48;43.19;100418.81;5103646;28;1370;-58
2022/04/26 04:28:14;;;;;;;;;;;;;;;17.67;43.68;100429.91;5097282;28;829;-58
2022/04/26 04:30:41;;;;;;;;;;;;;;;17.77;43.69;100438.06;5102384;28;988;-57
2022/04/26 04:33:07;;;;;;;;;;;;;;;17.84;43.93;100435.78;5097389;28;866;-58
2022/04/26 04:35:32;;;;;;;;;;;;;;;17.86;44.59;100449.25;5106156;28;885;-59
2022/04/26 04:37:57;;;;;;;;;;;;;;;17.85;44.75;100447.59;5116285;28;1937;-58
2022/04/26 04:40:23;;;;;;;;;;;;;;;17.90;44.42;100459.38;5102125;28;806;-59
2022/04/26 04:42:48;;;;;;;;;;;;;;;17.95;44.77;100464.06;5103463;28;1021;-57
2022/04/26 04:45:14;;;;;;;;;;;;;;;18.03;44.62;100471.66;5096612;28;726;-57
2022/04/26 04:47:39;;;;;;;;;;;;;;;18.06;44.83;100453.75;5096909;28;779;-57
2022/04/26 04:50:05;;;;;;;;;;;;;;;18.07;44.94;100460.91;5097178;28;1487;-56
2022/04/26 04:52:30;;;;;;;;;;;;;;;18.11;45.12;100462.78;5098828;28;1061;-57
2022/04/26 04:54:56;;;;;;;;;;;;;;;18.16;45.02;100470.16;5103246;28;818;-55
2022/04/26 04:57:21;;;;;;;;;;;;;;;18.21;44.94;100466.53;5097128;28;1960;-59
2022/04/26 04:59:47;;;;;;;;;;;;;;;18.13;44.84;100466.06;5096775;28;869;-55
2022/04/26 05:02:12;;;;;;;;;;;;;;;18.04;44.43;100478.00;5097119;28;1260;-58
2022/04/26 05:04:39;;;;;;;;;;;;;;;17.88;43.61;100494.63;5106577;28;1044;-58
2022/04/26 05:07:06;;;;;;;;;;;;;;;17.78;42.56;100502.94;5116477;28;833;-56
2022/04/26 05:09:31;;;;;;;;;;;;;;;17.55;41.48;100499.03;5108956;28;1130;-57
2022/04/26 05:11:57;;;;;;;;;;;;;;;17.37;40.82;100493.09;5096972;28;1146;-57
2022/04/26 05:14:22;;;;;;;;;;;;;;;17.31;39.98;100498.94;5103440;28;1084;-52
2022/04/26 05:16:48;;;;;;;;;;;;;;;17.24;40.80;100499.25;5098401;28;834;-52
2022/04/26 05:19:13;;;;;;;;;;;;;;;17.28;40.71;100517.63;5100370;28;1897;-52
2022/04/26 05:21:39;;;;;;;;;;;;;;;17.25;40.00;100528.34;5097058;28;855;-50
2022/04/26 05:26:48;;;;;;;;;;;;;;;17.45;42.01;100533.72;5106806;28;1057;-53
2022/04/26 05:29:13;;;;;;;;;;;;;;;17.61;42.87;100519.84;5118924;28;861;-55
2022/04/26 05:31:39;;;;;;;;;;;;;;;17.71;44.19;100524.47;5102375;28;821;-54
2022/04/26 05:34:04;;;;;;;;;;;;;;;17.81;45.11;100537.31;5100954;28;1139;-53
2022/04/26 05:36:31;;;;;;;;;;;;;;;17.78;46.06;100525.78;5118683;28;817;-57
2022/04/26 05:38:56;;;;;;;;;;;;;;;17.88;46.30;100524.03;5116982;28;1971;-54
2022/04/26 05:41:21;;;;;;;;;;;;;;;17.87;46.60;100500.41;5100775;28;790;-57
2022/04/26 05:43:47;;;;;;;;;;;;;;;17.96;47.12;100501.44;5103555;28;892;-56
2022/04/26 05:46:13;;;;;;;;;;;;;;;18.01;47.63;100495.09;5100113;28;738;-58
2022/04/26 05:48:40;;;;;;;;;;;;;;;18.06;47.88;100471.09;5100482;28;839;-56
2022/04/26 05:51:05;;;;;;;;;;;;;;;18.05;48.00;100452.94;5101074;28;767;-59
2022/04/26 05:53:31;;;;;;;;;;;;;;;18.08;47.87;100468.84;5103869;28;894;-57
2022/04/26 05:55:56;;;;;;;;;;;;;;;18.15;48.08;100486.97;5106730;28;754;-57
2022/04/26 05:58:22;;;;;;;;;;;;;;;18.16;48.20;100525.22;5100434;28;1959;-57
2022/04/26 06:00:47;;;;;;;;;;;;;;;18.15;47.78;100522.75;5099586;28;1103;-56
2022/04/26 06:03:13;;;;;;;;;;;;;;;18.10;47.77;100532.69;5119538;28;901;-56
2022/04/26 06:05:39;;;;;;;;;;;;;;;18.16;47.75;100529.88;5119669;28;828;-54
2022/04/26 06:08:07;;;;;;;;;;;;;;;18.12;47.57;100535.16;5114658;28;879;-55
2022/04/26 06:10:32;;;;;;;;;;;;;;;18.17;47.35;100537.84;5101070;28;1687;-56
2022/04/26 06:12:58;;;;;;;;;;;;;;;18.19;47.75;100559.56;5110919;28;1011;-56
2022/04/26 06:15:23;;;;;;;;;;;;;;;18.22;47.76;100561.75;5099405;28;750;-55
2022/04/26 06:17:49;;;;;;;;;;;;;;;18.09;47.32;100558.56;5101186;28;1910;-55
2022/04/26 06:20:14;;;;;;;;;;;;;;;17.98;46.28;100573.53;5120026;28;847;-58
2022/04/26 06:22:40;;;;;;;;;;;;;;;17.70;44.82;100589.66;5119560;28;861;-57
2022/04/26 06:25:05;;;;;;;;;;;;;;;17.47;43.49;100590.34;5120014;28;1037;-58
2022/04/26 06:27:31;;;;;;;;;;;;;;;17.24;42.66;100588.00;5119652;28;731;-54
2022/04/26 06:29:56;;;;;;;;;;;;;;;17.12;41.85;100597.66;5119954;28;1081;-55
2022/04/26 06:32:23;;;;;;;;;;;;;;;16.96;41.20;100592.25;5117351;28;1342;-55
2022/04/26 06:34:48;;;;;;;;;;;;;;;16.87;40.94;100591.97;5118863;28;890;-56
2022/04/26 06:37:14;;;;;;;;;;;;;;;16.83;41.00;100581.81;5117845;28;797;-59
2022/04/26 06:39:40;;;;;;;;;;;;;;;16.81;40.64;100573.84;5119062;28;1994;-59
2022/04/26 06:42:05;;;;;;;;;;;;;;;16.79;40.91;100558.75;5119438;28;864;-58
2022/04/26 06:44:31;;;;;;;;;;;;;;;16.90;41.89;100555.72;5119750;28;752;-59
2022/04/26 06:46:57;;;;;;;;;;;;;;;17.04;43.07;100550.47;5101303;28;855;-58
2022/04/26 06:49:22;;;;;;;;;;;;;;;17.34;44.72;100554.13;5119493;28;921;-58
2022/04/26 06:51:48;;;;;;;;;;;;;;;17.88;47.33;100551.53;5119292;28;757;-57
2022/04/26 06:54:13;;;;;;;;;;;;;;;18.21;48.92;100554.59;5108482;28;1013;-56
2022/04/26 06:56:40;;;;;;;;;;;;;;;18.41;49.87;100548.06;5098957;28;801;-58
2022/04/26 06:59:06;;;;;;;;;;;;;;;18.64;50.92;100549.19;5108100;28;1984;-58
2022/04/26 07:01:31;;;;;;;;;;;;;;;18.81;51.55;100545.97;5119752;28;940;-59
2022/04/26 07:03:57;;;;;;;;;;;;;;;18.77;52.53;100553.97;5119328;28;831;-60
2022/04/26 07:06:22;;;;;;;;;;;;;;;18.27;54.26;100542.41;5111378;28;1561;-58
2022/04/26 07:08:48;;;;;;;;;;;;;;;17.70;55.67;100544.84;5108334;28;982;-57
2022/04/26 07:11:16;;;;;;;;;;;;;;;17.39;57.08;100551.38;5118867;28;903;-57
2022/04/26 07:13:42;;;;;;;;;;;;;;;18.30;54.19;100548.16;5118446;28;1178;-57
2022/04/26 07:16:08;;;;;;;;;;;;;;;18.52;53.40;100537.75;5106984;28;1517;-57
2022/04/26 07:18:36;;;;;;;;;;;;;;;18.58;52.71;100548.44;5112521;28;1909;-57
2022/04/26 07:21:01;;;;;;;;;;;;;;;18.06;51.86;100559.16;5118831;28;760;-57
2022/04/26 07:23:27;;;;;;;;;;;;;;;17.37;50.16;100547.25;5110802;28;906;-57
2022/04/26 07:25:52;;;;;;;;;;;;;;;17.48;46.84;100539.78;5119347;28;887;-57
2022/04/26 07:28:19;;;;;;;;;;;;;;;17.33;45.28;100527.75;5114343;28;1197;-57
2022/04/26 07:30:44;;;;;;;;;;;;;;;17.22;43.91;100512.44;5097827;28;1250;-59
2022/04/26 07:35:54;;;;;;;;;;;;;;;17.09;41.86;100487.22;5098154;28;808;-62
2022/04/26 07:38:19;;;;;;;;;;;;;;;16.96;41.74;100514.50;5115493;28;1980;-58
2022/04/26 07:40:45;;;;;;;;;;;;;;;16.83;41.69;100526.88;5107180;28;1249;-59
2022/04/26 07:43:10;;;;;;;;;;;;;;;16.95;42.29;100545.84;5104597;28;1261;-59
2022/04/26 07:45:36;;;;;;;;;;;;;;;17.02;43.38;100557.34;5108809;28;1295;-59
2022/04/26 07:48:02;;;;;;;;;;;;;;;17.13;43.98;100560.84;5088503;28;1289;-60
2022/04/26 07:50:27;;;;;;;;;;;;;;;17.24;45.32;100582.50;5087691;28;1276;-58
2022/04/26 07:52:53;;;;;;;;;;;;;;;17.93;48.65;100596.38;5105409;28;1241;-58
2022/04/26 07:55:18;;;;;;;;;;;;;;;18.28;51.23;100594.41;5107948;28;1264;-57
2022/04/26 07:57:44;;;;;;;;;;;;;;;18.71;52.88;100598.44;5090755;28;1913;-58
2022/04/26 08:00:11;;;;;;;;;;;;;;;19.03;53.73;100592.28;5117172;28;749;-59
2022/04/26 08:02:39;;;;;;;;;;;;;;;18.71;55.05;100596.47;5110090;28;1335;-58
2022/04/26 08:05:05;;;;;;;;;;;;;;;18.40;56.77;100594.03;5107246;28;1237;-58
2022/04/26 08:07:31;;;;;;;;;;;;;;;17.59;58.31;100605.38;5106220;28;1238;-59
2022/04/26 08:09:56;;;;;;;;;;;;;;;17.71;57.64;100616.03;5106691;28;1332;-59
2022/04/26 08:12:22;;;;;;;;;;;;;;;18.23;54.16;100613.75;5109250;28;1230;-56
2022/04/26 08:14:47;;;;;;;;;;;;;;;18.24;52.14;100609.06;5107776;28;1096;-58
2022/04/26 08:17:15;;;;;;;;;;;;;;;18.17;50.31;100608.56;5089178;28;1226;-57
2022/04/26 08:19:41;;;;;;;;;;;;;;;17.99;48.65;100619.16;5102867;28;1979;-55
2022/04/26 08:22:06;;;;;;;;;;;;;;;17.92;47.61;100614.00;5104099;28;1186;-56
2022/04/26 08:27:30;;;;;;;;;;;;;;;17.67;46.04;100601.22;5105957;28;1179;-57
2022/04/26 08:29:56;;;;;;;;;;;;;;;17.59;45.40;100597.13;5107609;28;1143;-57
2022/04/26 08:32:23;;;;;;;;;;;;;;;17.51;45.38;100586.72;5103867;28;1242;-55
2022/04/26 08:34:48;;;;;;;;;;;;;;;17.46;45.00;100597.78;5107933;28;1241;-55
2022/04/26 08:37:14;;;;;;;;;;;;;;;17.42;44.69;100591.22;5097037;28;1218;-55
2022/04/26 08:39:39;;;;;;;;;;;;;;;17.37;44.26;100581.03;5096795;28;1989;-55
2022/04/26 08:42:06;;;;;;;;;;;;;;;17.26;43.98;100590.44;5102262;28;1312;-55
2022/04/26 08:44:31;;;;;;;;;;;;;;;17.33;43.75;100588.22;5096190;28;1265;-55
2022/04/26 08:52:26;;;;;;;;;;;;;;;17.27;43.78;100625.06;5106625;28;1331;-55
2022/04/26 08:54:51;;;;;;;;;;;;;;;17.33;44.55;100612.94;5100718;28;820;-55
2022/04/26 08:57:17;;;;;;;;;;;;;;;17.41;45.04;100604.09;5097039;28;1186;-55
2022/04/26 08:59:51;;;;;;;;;;;;;;;17.49;45.52;100615.63;5096437;28;1910;-55
2022/04/26 09:02:18;;;;;;;;;;;;;;;18.06;49.04;100622.44;5101225;28;1280;-55
2022/04/26 09:04:44;;;;;;;;;;;;;;;18.51;51.00;100635.25;5109539;28;1375;-55
2022/04/26 09:07:11;;;;;;;;;;;;;;;18.83;52.29;100633.81;5097935;28;1197;-54
2022/04/26 09:09:39;;;;;;;;;;;;;;;18.81;53.00;100626.66;5108164;28;1206;-55
2022/04/26 09:12:09;;;;;;;;;;;;;;;18.12;54.81;100621.25;5117040;28;839;-55
2022/04/26 09:14:35;;;;;;;;;;;;;;;17.89;54.62;100627.47;5116502;28;1019;-55
2022/04/26 09:17:08;;;;;;;;;;;;;;;17.56;55.68;100638.13;5116900;28;758;-55
2022/04/26 09:19:49;;;;;;;;;;;;;;;18.22;53.32;100636.88;5116644;28;1978;-55
2022/04/26 09:22:18;;;;;;;;;;;;;;;18.39;51.78;100643.91;5116797;28;793;-55
2022/04/26 09:25:03;;;;;;;;;;;;;;;18.20;49.90;100641.00;5101792;28;985;-55
2022/04/26 09:27:29;;;;;;;;;;;;;;;18.02;48.16;100643.38;5096207;28;845;-55
2022/04/26 09:29:54;;;;;;;;;;;;;;;17.76;47.05;100638.00;5095859;28;1545;-55
2022/04/26 09:32:20;;;;;;;;;;;;;;;17.78;46.20;100640.47;5097252;28;985;-55
2022/04/26 09:34:46;;;;;;;;;;;;;;;17.69;45.79;100612.75;5102280;28;1226;-55
2022/04/26 09:37:12;;;;;;;;;;;;;;;17.57;45.18;100607.59;5096708;28;1484;-55
2022/04/26 09:39:39;;;;;;;;;;;;;;;17.52;44.88;100617.81;5099985;28;1901;-55
2022/04/26 09:42:05;;;;;;;;;;;;;;;17.38;44.81;100637.66;5098392;28;865;-55
2022/04/26 09:44:31;;;;;;;;;;;;;;;17.43;44.11;100648.66;5109266;28;837;-55
2022/04/26 09:46:56;;;;;;;;;;;;;;;17.34;44.21;100642.09;5116501;28;797;-55
2022/04/26 09:49:22;;;;;;;;;;;;;;;17.33;44.23;100645.94;5115893;28;853;-55
2022/04/26 09:51:59;;;;;;;;;;;;;;;17.28;43.91;100622.03;5097694;28;991;-54
2022/04/26 09:54:24;;;;;;;;;;;;;;;17.22;43.81;100601.19;5108377;28;893;-55
2022/04/26 09:56:50;;;;;;;;;;;;;;;17.12;43.80;100600.41;5115829;28;863;-55
2022/04/26 09:59:28;;;;;;;;;;;;;;;17.19;43.48;100606.44;5116194;28;1963;-56
2022/04/26 10:01:55;;;;;;;;;;;;;;;17.25;43.96;100599.78;5116567;28;899;-56
2022/04/26 10:04:21;;;;;;;;;;;;;;;17.35;44.46;100605.25;5116365;28;726;-56
2022/04/26 10:06:49;;;;;;;;;;;;;;;17.39;44.78;100624.72;5096752;28;1189;-55
2022/04/26 10:09:14;;;;;;;;;;;;;;;17.44;45.14;100616.47;5098346;28;1217;-55
2022/04/26 10:11:40;;;;;;;;;;;;;;;17.51;45.47;100635.41;5084879;28;1269;-55
2022/04/26 10:14:08;;;;;;;;;;;;;;;17.49;45.70;100632.09;5104250;28;1207;-55
2022/04/26 10:16:34;;;;;;;;;;;;;;;17.55;45.67;100622.75;5090816;28;1325;-57
2022/04/26 10:19:04;;;;;;;;;;;;;;;17.56;45.92;100618.91;5103099;28;1914;-57
2022/04/26 10:21:29;;;;;;;;;;;;;;;17.59;45.95;100621.06;5110068;28;1233;-59
2022/04/26 10:23:55;;;;;;;;;;;;;;;17.56;46.09;100599.66;5115448;28;1248;-56
2022/04/26 10:29:05;;;;;;;;;;;;;;;17.63;46.25;100627.66;5099222;28;845;-57
2022/04/26 10:31:37;;;;;;;;;;;;;;;17.59;46.35;100624.63;5110216;28;1297;-58
2022/04/26 10:34:16;;;;;;;;;;;;;;;17.66;46.44;100637.25;5119679;28;773;-59
2022/04/26 10:36:42;;;;;;;;;;;;;;;17.60;46.66;100626.28;5111565;28;1074;-61
2022/04/26 10:39:12;;;;;;;;;;;;;;;17.69;46.64;100615.50;5113483;28;1913;-60
2022/04/26 10:41:41;;;;;;;;;;;;;;;17.74;46.33;100618.22;5119517;28;817;-60
2022/04/26 10:44:12;;;;;;;;;;;;;;;17.77;46.32;100612.16;5119238;28;868;-61
2022/04/26 10:46:41;;;;;;;;;;;;;;;17.73;46.49;100605.56;5119758;28;719;-61
2022/04/26 10:49:25;;;;;;;;;;;;;;;17.72;46.69;100614.91;5118764;28;903;-60
2022/04/26 10:51:57;;;;;;;;;;;;;;;17.74;46.63;100607.22;5107797;28;1238;-62
2022/04/26 10:54:41;;;;;;;;;;;;;;;17.76;46.52;100615.19;5102433;28;1481;-59
2022/04/26 10:57:06;;;;;;;;;;;;;;;17.82;46.63;100615.97;5097436;28;1222;-57
2022/04/26 10:59:32;;;;;;;;;;;;;;;17.80;46.62;100608.00;5097930;28;1933;-57
2022/04/26 11:01:57;;;;;;;;;;;;;;;17.81;46.60;100617.06;5081600;28;1257;-57
2022/04/26 11:04:23;;;;;;;;;;;;;;;17.88;46.89;100634.91;5105875;28;1226;-57
2022/04/26 11:06:48;;;;;;;;;;;;;;;17.87;46.57;100622.25;5098682;28;1137;-58
2022/04/26 11:09:14;;;;;;;;;;;;;;;17.89;46.84;100630.22;5109165;28;1341;-58
2022/04/26 11:11:50;;;;;;;;;;;;;;;17.83;46.56;100617.63;5107369;28;1198;-59
2022/04/26 11:14:19;;;;;;;;;;;;;;;17.87;46.64;100608.50;5109691;28;1285;-57
2022/04/26 11:16:58;;;;;;;;;;;;;;;17.87;46.80;100604.94;5105491;28;1320;-58
2022/04/26 11:19:26;;;;;;;;;;;;;;;17.79;46.75;100622.84;5115098;28;1909;-58
2022/04/26 11:21:51;;;;;;;;;;;;;;;17.86;46.50;100625.28;5118653;28;873;-59
2022/04/26 11:29:54;;;;;;;;;;;;;;;17.79;46.35;100584.34;5097859;28;1159;-59
2022/04/26 11:32:30;;;;;;;;;;;;;;;17.84;46.60;100595.31;5097529;28;1312;-59
2022/04/26 11:34:56;;;;;;;;;;;;;;;17.83;46.45;100598.38;5098363;28;913;-61
2022/04/26 11:37:22;;;;;;;;;;;;;;;17.85;46.52;100607.13;5098007;28;902;-59
2022/04/26 11:39:47;;;;;;;;;;;;;;;17.87;46.50;100597.50;5113155;28;1996;-59
2022/04/26 11:42:12;;;;;;;;;;;;;;;17.91;46.40;100595.03;5118388;28;901;-59
2022/04/26 11:44:56;;;;;;;;;;;;;;;17.91;46.57;100595.03;5118318;28;782;-59
2022/04/26 11:47:36;;;;;;;;;;;;;;;17.89;46.41;100600.81;5118226;28;817;-58
2022/04/26 11:50:08;;;;;;;;;;;;;;;17.92;46.44;100605.75;5116433;28;1277;-58
2022/04/26 11:52:34;;;;;;;;;;;;;;;17.86;46.59;100608.78;5110487;28;1065;-58
2022/04/26 11:54:59;;;;;;;;;;;;;;;17.87;46.59;100599.44;5107367;28;1195;-58
2022/04/26 11:57:24;;;;;;;;;;;;;;;17.89;46.60;100598.03;5105716;28;1297;-58
2022/04/26 11:59:50;;;;;;;;;;;;;;;17.93;46.62;100601.88;5107667;28;1980;-57
2022/04/26 12:02:15;;;;;;;;;;;;;;;17.96;46.31;100597.72;5097945;28;1202;-58
2022/04/26 12:04:41;;;;;;;;;;;;;;;17.94;46.45;100592.50;5106371;28;852;-58
2022/04/26 12:07:07;;;;;;;;;;;;;;;17.95;46.54;100574.09;5108120;28;1249;-57
2022/04/26 12:09:33;;;;;;;;;;;;;;;18.04;46.43;100591.63;5092320;28;681;-58
2022/04/26 12:11:58;;;;;;;;;;;;;;;18.03;46.63;100581.72;5117836;28;833;-58
2022/04/26 12:14:24;;;;;;;;;;;;;;;17.60;47.66;100565.78;5108919;28;1337;-59
2022/04/26 12:16:54;;;;;;;;;;;;;;;17.42;47.99;100583.78;5108878;28;1277;-57
2022/04/26 12:19:22;;;;;;;;;;;;;;;17.78;46.96;100580.78;5074810;28;1963;-55
2022/04/26 12:21:49;;;;;;;;;;;;;;;17.88;46.81;100587.31;5103767;28;1257;-58
2022/04/26 12:24:14;;;;;;;;;;;;;;;17.91;46.67;100581.28;5106715;28;1272;-57
2022/04/26 12:26:56;;;;;;;;;;;;;;;17.91;46.70;100589.53;5099204;28;1311;-58
2022/04/26 12:29:22;;;;;;;;;;;;;;;17.92;46.69;100591.16;5102652;28;1287;-58
2022/04/26 12:31:48;;;;;;;;;;;;;;;17.92;46.36;100588.41;5102835;28;1254;-58
2022/04/26 12:34:16;;;;;;;;;;;;;;;17.90;46.44;100582.34;5095962;28;792;-59
2022/04/26 12:37:09;;;;;;;;;;;;;;;17.91;46.40;100584.03;5096979;28;782;-57
2022/04/26 12:39:41;;;;;;;;;;;;;;;17.86;46.58;100575.78;5097429;28;1906;-61
2022/04/26 12:42:07;;;;;;;;;;;;;;;17.87;46.42;100575.50;5104173;28;1186;-59
2022/04/26 12:44:33;;;;;;;;;;;;;;;17.88;46.70;100584.56;5089542;28;1259;-62
2022/04/26 12:52:47;;;;;;;;;;;;;;;17.89;46.60;100580.69;5098673;28;1206;-59
2022/04/26 12:55:13;;;;;;;;;;;;;;;17.90;46.42;100568.59;5089481;28;1163;-60
2022/04/26 12:57:45;;;;;;;;;;;;;;;17.99;46.35;100568.81;5103146;28;1973;-58
2022/04/26 13:00:10;;;;;;;;;;;;;;;17.97;46.53;100562.81;5093850;28;1542;-56
2022/04/26 13:02:36;;;;;;;;;;;;;;;18.03;46.54;100569.91;5113571;28;714;-56
2022/04/26 13:05:01;;;;;;;;;;;;;;;18.00;46.45;100565.78;5105636;28;1554;-57
2022/04/26 13:07:27;;;;;;;;;;;;;;;18.01;46.49;100563.88;5096302;28;857;-56
2022/04/26 13:09:52;;;;;;;;;;;;;;;18.04;46.26;100566.84;5112233;28;956;-55
2022/04/26 13:12:18;;;;;;;;;;;;;;;17.99;46.55;100558.63;5104590;28;782;-55
2022/04/26 13:14:43;;;;;;;;;;;;;;;18.03;46.40;100567.13;5104299;28;1229;-55
2022/04/26 13:17:09;;;;;;;;;;;;;;;18.05;46.53;100568.50;5097803;28;1155;-56
2022/04/26 13:19:34;;;;;;;;;;;;;;;18.07;46.34;100566.25;5113402;28;1968;-57
2022/04/26 13:22:00;;;;;;;;;;;;;;;18.04;46.64;100561.34;5103979;28;1260;-57
2022/04/26 13:24:28;;;;;;;;;;;;;;;18.08;46.43;100556.09;5108174;28;785;-56
2022/04/26 13:26:53;;;;;;;;;;;;;;;18.02;46.50;100549.81;5116619;28;923;-57
2022/04/26 13:29:18;;;;;;;;;;;;;;;18.02;46.55;100574.59;5116005;28;773;-55
2022/04/26 13:31:44;;;;;;;;;;;;;;;18.00;46.45;100557.53;5107486;28;1209;-56
2022/04/26 13:34:10;;;;;;;;;;;;;;;18.13;46.36;100561.53;5110271;28;1182;-55
2022/04/26 13:36:35;;;;;;;;;;;;;;;18.05;46.54;100563.00;5116484;28;793;-55
2022/04/26 13:39:02;;;;;;;;;;;;;;;18.07;46.57;100560.75;5112376;28;1905;-56
2022/04/26 13:41:27;;;;;;;;;;;;;;;18.06;46.55;100561.91;5114080;28;731;-57
2022/04/26 13:43:53;;;;;;;;;;;;;;;18.10;46.37;100556.63;5115941;28;816;-57
2022/04/26 13:46:19;;;;;;;;;;;;;;;18.11;46.24;100553.56;5116295;28;900;-57
2022/04/26 13:48:45;;;;;;;;;;;;;;;18.09;46.52;100552.22;5120397;28;734;-58
2022/04/26 13:51:11;;;;;;;;;;;;;;;18.09;46.60;100557.72;5120566;28;811;-56
2022/04/26 13:53:36;;;;;;;;;;;;;;;18.05;46.44;100557.50;5119513;28;997;-56
2022/04/26 13:56:06;;;;;;;;;;;;;;;18.10;46.49;100560.22;5120126;28;864;-56
2022/04/26 13:58:32;;;;;;;;;;;;;;;18.01;46.78;100548.19;5119490;28;1894;-55
2022/04/26 14:00:57;;;;;;;;;;;;;;;18.02;46.72;100557.25;5116331;28;1189;-56
2022/04/26 14:03:23;;;;;;;;;;;;;;;18.11;46.46;100567.34;5098553;28;1071;-57
2022/04/26 14:05:49;;;;;;;;;;;;;;;18.11;46.14;100563.78;5118571;28;1071;-56
2022/04/26 14:08:14;;;;;;;;;;;;;;;18.09;46.22;100553.06;5116388;28;950;-56
2022/04/26 14:10:39;;;;;;;;;;;;;;;18.09;46.29;100564.06;5098084;28;1126;-56
2022/04/26 14:13:05;;;;;;;;;;;;;;;18.04;46.36;100566.03;5113512;28;1062;-55
2022/04/26 14:23:42;;;;;;;;;;;;;;;18.06;46.42;100575.66;5112215;28;961;-57
2022/04/26 14:26:07;;;;;;;;;;;;;;;18.08;46.09;100572.63;5114851;28;897;-55
2022/04/26 14:28:33;;;;;;;;;;;;;;;18.09;46.18;100580.56;5118378;28;979;-55
2022/04/26 14:30:59;;;;;;;;;;;;;;;18.04;46.19;100588.88;5118414;28;1102;-56
2022/04/26 14:33:24;;;;;;;;;;;;;;;18.05;45.91;100576.75;5119039;28;1123;-57
2022/04/26 14:35:49;;;;;;;;;;;;;;;18.08;46.18;100575.34;5118999;28;861;-56
2022/04/26 14:38:15;;;;;;;;;;;;;;;18.03;45.96;100570.69;5115237;28;1956;-56
2022/04/26 14:40:40;;;;;;;;;;;;;;;18.04;46.04;100572.34;5109902;28;1546;-56
2022/04/26 14:43:07;;;;;;;;;;;;;;;18.05;45.94;100574.00;5113963;28;819;-56
2022/04/26 14:45:32;;;;;;;;;;;;;;;18.00;46.10;100575.97;5106231;28;1496;-57
2022/04/26 14:47:58;;;;;;;;;;;;;;;18.03;46.27;100575.41;5110058;28;876;-57
2022/04/26 14:50:26;;;;;;;;;;;;;;;18.03;46.02;100572.66;5118869;28;887;-56
2022/04/26 14:52:53;;;;;;;;;;;;;;;18.04;46.14;100577.03;5099849;28;1098;-56
2022/04/26 14:55:18;;;;;;;;;;;;;;;18.06;45.93;100575.66;5098338;28;998;-57
2022/04/26 14:57:44;;;;;;;;;;;;;;;18.06;45.98;100578.41;5102207;28;1910;-57
2022/04/26 15:00:10;;;;;;;;;;;;;;;17.96;46.06;100575.72;5116325;28;1280;-58
2022/04/26 15:02:38;;;;;;;;;;;;;;;18.02;45.78;100569.09;5106423;28;769;-57
2022/04/26 15:05:07;;;;;;;;;;;;;;;17.97;45.85;100566.38;5119108;28;723;-57
2022/04/26 15:09:42;;;;;;;;;;;;;;;18.00;45.83;100576.78;5110093;28;1249;-56
2022/04/26 15:10:18;;;;;;;;;;;;;;;17.98;46.12;100576.28;5098034;28;989;-56
2022/04/26 15:18:13;;;;;;;;;;;;;;;17.95;45.79;100596.09;5076562;28;1959;-57
2022/04/26 15:20:41;;;;;;;;;;;;;;;17.99;45.66;100586.13;5118400;28;793;-61
2022/04/26 15:23:06;;;;;;;;;;;;;;;17.90;45.63;100585.09;5098793;28;1293;-60
2022/04/26 15:25:32;;;;;;;;;;;;;;;17.90;45.63;100587.84;5101380;28;1502;-59
2022/04/26 15:27:57;;;;;;;;;;;;;;;17.86;45.61;100590.34;5116807;27;916;-59
2022/04/26 15:30:23;;;;;;;;;;;;;;;17.99;45.64;100594.41;5078591;28;843;-57
2022/04/26 15:32:48;;;;;;;;;;;;;;;17.96;45.55;100597.72;5095128;28;929;-59
2022/04/26 15:35:14;;;;;;;;;;;;;;;17.84;45.52;100581.56;5104302;28;885;-56
2022/04/26 15:37:39;;;;;;;;;;;;;;;17.92;45.33;100583.75;5097594;28;832;-56
2022/04/26 15:40:05;;;;;;;;;;;;;;;17.83;45.51;100570.88;5115366;28;1972;-56
2022/04/26 15:42:31;;;;;;;;;;;;;;;17.90;45.54;100590.59;5117932;28;836;-56
2022/04/26 15:44:56;;;;;;;;;;;;;;;17.88;45.41;100596.41;5117475;28;834;-57
2022/04/26 15:47:22;;;;;;;;;;;;;;;17.77;45.49;100581.88;5117851;28;936;-58
2022/04/26 15:49:47;;;;;;;;;;;;;;;17.84;45.34;100594.47;5118404;28;1344;-55
2022/04/26 15:52:13;;;;;;;;;;;;;;;17.81;45.43;100584.91;5110809;28;1261;-55
2022/04/26 15:54:41;;;;;;;;;;;;;;;17.79;45.69;100582.44;5111867;28;852;-56
2022/04/26 15:57:07;;;;;;;;;;;;;;;17.71;45.62;100591.28;5118188;28;863;-59
2022/04/26 15:59:32;;;;;;;;;;;;;;;17.88;45.50;100581.81;5117388;28;1909;-56
2022/04/26 16:01:58;;;;;;;;;;;;;;;17.83;45.43;100592.88;5116516;28;817;-57
2022/04/26 16:04:23;;;;;;;;;;;;;;;17.82;45.45;100581.03;5117937;28;850;-58
2022/04/26 16:06:49;;;;;;;;;;;;;;;17.79;45.24;100584.34;5116778;28;909;-56
2022/04/26 16:22:53;;;;;;;;;;;;;;;17.70;45.35;100605.34;5116588;28;786;-56
2022/04/26 16:25:19;;;;;;;;;;;;;;;17.69;44.87;100592.69;5097202;28;965;-57
2022/04/26 16:27:48;;;;;;;;;;;;;;;17.65;45.07;100602.59;5096661;28;873;-56
2022/04/26 16:30:13;;;;;;;;;;;;;;;17.63;45.02;100605.66;5096520;28;837;-56
2022/04/26 16:32:38;;;;;;;;;;;;;;;17.66;44.91;100605.06;5109396;28;832;-56
2022/04/26 16:35:05;;;;;;;;;;;;;;;17.61;45.15;100614.19;5117371;28;906;-56
2022/04/26 16:37:31;;;;;;;;;;;;;;;17.57;45.29;100615.00;5116739;28;891;-56
2022/04/26 16:39:56;;;;;;;;;;;;;;;17.57;45.27;100618.59;5099942;28;1906;-57
2022/04/26 16:42:22;;;;;;;;;;;;;;;17.62;45.09;100623.25;5096270;28;882;-56
2022/04/26 16:44:47;;;;;;;;;;;;;;;17.62;45.14;100618.56;5104308;28;899;-56
2022/04/26 16:47:12;;;;;;;;;;;;;;;17.62;45.09;100628.75;5116891;28;866;-56
2022/04/26 16:49:39;;;;;;;;;;;;;;;17.57;45.20;100629.59;5116903;28;769;-56
2022/04/26 16:52:05;;;;;;;;;;;;;;;17.55;45.07;100631.00;5116597;28;1090;-56
2022/04/26 16:54:30;;;;;;;;;;;;;;;17.57;45.02;100634.25;5116703;28;1040;-56
2022/04/26 16:56:56;;;;;;;;;;;;;;;17.61;45.10;100638.94;5115874;28;852;-59
2022/04/26 16:59:22;;;;;;;;;;;;;;;17.57;45.23;100626.00;5116290;28;1901;-57
2022/04/26 17:01:48;;;;;;;;;;;;;;;17.65;45.02;100633.66;5116630;28;832;-57
2022/04/26 17:04:14;;;;;;;;;;;;;;;17.59;45.30;100635.63;5116584;28;919;-57
2022/04/26 17:06:39;;;;;;;;;;;;;;;17.61;45.06;100632.59;5116645;28;757;-58
2022/04/26 17:09:05;;;;;;;;;;;;;;;17.61;45.00;100640.84;5116292;28;965;-58
2022/04/26 17:11:43;;;;;;;;;;;;;;;17.67;45.21;100650.72;5116271;28;859;-57
2022/04/26 17:14:12;;;;;;;;;;;;;;;17.58;45.06;100660.66;5116111;28;1017;-58
2022/04/26 17:16:37;;;;;;;;;;;;;;;17.58;44.98;100652.41;5116431;28;717;-57
2022/04/26 17:19:03;;;;;;;;;;;;;;;17.53;44.80;100657.94;5116188;28;1978;-56
2022/04/26 17:21:29;;;;;;;;;;;;;;;17.47;44.96;100659.06;5120598;28;861;-56
2022/04/26 17:23:55;;;;;;;;;;;;;;;17.44;44.72;100669.50;5122721;28;891;-56